Data for 04/12/2014

Time Sea-Level Adjusted Pressure Absolute Pressure Temperature Relative Humidity Dew Point   
(mb) (inHg) (mb) (inHg) (C) (F) (%) (C) (F)
00:05 1013 29.91 842 24.86 8.5 47.4 38 -4.9 23.2
00:10 1013 29.91 842 24.86 8.1 46.5 39 -5.1 22.7
00:15 1013 29.91 842 24.86 7.8 46.1 40 -4.9 23.2
00:20 1013 29.91 842 24.86 7.5 45.4 46 -3.4 25.8
00:25 1013 29.91 842 24.86 6.1 43.1 48 -4.2 24.5
00:30 1013 29.91 842 24.86 6.2 43.1 47 -4.2 24.4
00:35 1013 29.91 842 24.86 6.1 43.1 48 -4.1 24.6
00:40 1013 29.91 842 24.86 5.9 42.7 50 -3.7 25.4
00:45 1013 29.91 842 24.86 5.5 41.9 52 -3.5 25.7
00:50 1013 29.91 842 24.86 5.2 41.4 53 -3.7 25.4
00:55 1013 29.91 842 24.86 5.2 41.3 47 -5.2 22.7
01:00 1013 29.91 842 24.86 6.1 43 46 -4.7 23.6
01:05 1013 29.91 842 24.86 6.2 43.2 46 -4.4 24.1
01:10 1013 29.91 842 24.86 5.9 42.6 49 -4 24.7
01:15 1013 29.91 842 24.86 5.6 42.2 49 -4.2 24.4
01:20 1013 29.91 842 24.86 5.5 41.9 48 -4.6 23.8
01:25 1013 29.91 842 24.86 5.6 42.1 50 -4 24.8
01:30 1013 29.91 842 24.86 5.5 41.8 51 -3.9 25.1
01:35 1013 29.91 842 24.86 5.3 41.6 52 -3.8 25.1
01:40 1013 29.91 842 24.86 5 41 53 -3.7 25.4
01:45 1013 29.91 842 24.86 4.8 40.7 54 -3.7 25.3
01:50 1013 29.91 842 24.86 5 40.9 53 -3.9 25
01:55 1013 29.91 842 24.86 4.9 40.8 55 -3.5 25.8
02:00 1013 29.91 842 24.86 4.7 40.5 54 -3.9 25
02:05 1013 29.91 842 24.86 4.5 40.2 56 -3.5 25.8
02:10 1013 29.91 842 24.86 4.4 39.8 55 -3.8 25.1
02:15 1013 29.91 842 24.86 4.5 40.1 55 -3.8 25.1
02:20 1013 29.91 842 24.86 4.5 40.1 55 -3.7 25.4
02:25 1013 29.91 842 24.86 4.4 39.9 56 -3.6 25.5
02:30 1013 29.91 842 24.86 4.4 39.8 55 -3.8 25.2
02:35 1013 29.91 842 24.86 4.5 40 56 -3.6 25.5
02:40 1013 29.91 842 24.86 4.4 39.9 56 -3.6 25.5
02:45 1013 29.91 842 24.86 4.4 40 56 -3.5 25.6
02:50 1013 29.91 842 24.86 4.4 39.9 57 -3.3 26
02:55 1013 29.91 842 24.86 4.2 39.5 57 -3.7 25.4
03:00 1013 29.91 842 24.86 4.4 39.8 57 -3.5 25.7
03:05 1013 29.91 842 24.86 4.4 39.9 57 -3.4 25.8
03:10 1013 29.91 842 24.86 4.4 39.9 57 -3.5 25.8
03:15 1013 29.91 842 24.86 4.4 39.9 57 -3.4 25.9
03:20 1013 29.91 842 24.86 4 39.2 59 -3.2 26.2
03:25 1013 29.91 842 24.86 3.6 38.5 61 -3.2 26.2
03:30 1013 29.91 842 24.86 3.6 38.4 60 -3.6 25.6
03:35 1013 29.91 842 24.86 3.8 38.9 59 -3.5 25.7
03:40 1013 29.91 842 24.86 4.1 39.4 58 -3.4 25.8
03:45 1013 29.91 842 24.86 4.2 39.5 58 -3.4 25.8
03:50 1013 29.91 842 24.86 4.2 39.6 57 -3.5 25.7
03:55 1013 29.91 842 24.86 4.3 39.7 57 -3.6 25.6
04:00 1013 29.91 842 24.86 4.3 39.7 57 -3.4 25.9
04:05 1013 29.91 842 24.86 4.2 39.6 57 -3.5 25.7
04:10 1013 29.91 842 24.86 4.3 39.8 58 -3.3 26.1
04:15 1013 29.91 842 24.86 4.5 40.1 57 -3.2 26.2
04:20 1013 29.91 842 24.86 4.5 40.1 57 -3.3 26.1
04:25 1013 29.91 842 24.86 4.5 40.1 57 -3.3 26
04:30 1013 29.91 842 24.86 4.3 39.7 58 -3.3 26
04:35 1013 29.91 842 24.86 4.1 39.4 58 -3.5 25.7
04:40 1013 29.91 842 24.86 4.1 39.5 57 -3.5 25.7
04:45 1013 29.91 842 24.86 4.1 39.4 59 -3.2 26.2
04:50 1013 29.91 842 24.86 4.2 39.5 58 -3.3 26.1
04:55 1013 29.91 842 24.86 4.1 39.3 59 -3.3 26
05:00 1013 29.91 842 24.86 4.2 39.5 58 -3.4 25.9
05:05 1013 29.91 842 24.86 4.2 39.6 58 -3.2 26.2
05:10 1013 29.91 842 24.86 4.2 39.5 58 -3.3 26.1
05:15 1013 29.91 842 24.86 4 39.3 59 -3.2 26.2
05:20 1013 29.91 842 24.86 4.1 39.4 59 -3.3 26.1
05:25 1013 29.91 842 24.86 4.1 39.3 60 -3.1 26.5
05:30 1013 29.91 842 24.86 4.1 39.3 59 -3.3 26
05:35 1013 29.91 842 24.86 4.1 39.4 59 -3.2 26.2
05:40 1013 29.91 842 24.86 4.2 39.5 58 -3.3 26
05:45 1013 29.91 842 24.86 4.2 39.5 58 -3.2 26.2
05:50 1013 29.91 842 24.86 4.2 39.6 58 -3.2 26.2
05:55 1013 29.91 842 24.86 4.3 39.7 58 -3.2 26.2
06:00 1013 29.91 842 24.86 4.3 39.8 58 -3.1 26.4
06:05 1013 29.91 842 24.86 4.4 39.9 58 -3 26.5
06:10 1013 29.91 842 24.86 4.4 39.9 59 -3 26.5
06:15 1013 29.91 842 24.86 4.4 39.9 60 -2.7 27.1
06:20 1013 29.91 842 24.86 3.8 38.9 64 -2.4 27.6
06:25 1013 29.91 842 24.86 3.4 38.1 65 -2.5 27.5
06:30 1013 29.91 842 24.86 3.3 37.9 64 -2.8 27
06:35 1013 29.91 842 24.86 3.6 38.4 63 -2.9 26.8
06:40 1013 29.91 842 24.86 3.7 38.6 62 -2.9 26.8
06:45 1013 29.91 842 24.86 3.7 38.7 62 -2.8 26.9
06:50 1013 29.91 842 24.86 3.7 38.6 62 -2.8 27
06:55 1013 29.91 842 24.86 3.7 38.6 63 -2.7 27.1
07:00 1013 29.91 842 24.86 3.5 38.4 63 -2.8 26.9
07:05 1013 29.91 842 24.86 3.7 38.6 63 -2.8 26.9
07:10 1013 29.91 843 24.89 3.8 38.9 63 -2.7 27.2
07:15 1013 29.91 843 24.89 3.9 39.1 62 -2.6 27.3
07:20 1013 29.91 843 24.89 3.9 39 63 -2.5 27.6
07:25 1013 29.91 843 24.89 3.9 39.1 61 -2.9 26.8
07:30 1013 29.91 843 24.89 4.2 39.5 59 -3 26.6
07:35 1013 29.91 843 24.89 4.4 39.9 59 -2.9 26.8
07:40 1013 29.91 843 24.89 4.5 40.2 58 -3 26.6
07:45 1013 29.91 843 24.89 4.9 40.7 58 -2.7 27.1
07:50 1013 29.91 843 24.89 4.2 39.6 60 -2.9 26.8
07:55 1013 29.91 843 24.89 4 39.2 59 -3.2 26.3
08:00 1013 29.91 843 24.89 4.5 40.1 57 -3.2 26.2
08:05 1013 29.91 843 24.89 4.8 40.6 57 -3 26.5
08:10 1013 29.91 843 24.89 5.4 41.6 54 -3.2 26.2
08:15 1013 29.91 843 24.89 5.2 41.3 56 -2.9 26.8
08:20 1013 29.91 843 24.89 5 41 57 -2.9 26.8
08:25 1013 29.91 843 24.89 4.8 40.7 57 -2.9 26.8
08:30 1013 29.91 843 24.89 4.7 40.5 56 -3.2 26.2
08:35 1013 29.91 843 24.89 5.2 41.3 55 -3.2 26.2
08:40 1013 29.91 843 24.89 5.7 42.3 53 -3.2 26.2
08:45 1013 29.91 843 24.89 5.9 42.5 52 -3.3 26.1
08:50 1013 29.91 843 24.89 6.2 43.1 50 -3.4 25.8
08:55 1013 29.91 843 24.89 6.5 43.7 50 -3.1 26.5
09:00 1013 29.91 843 24.89 6.7 44 48 -3.5 25.6
09:05 1013 29.91 843 24.89 7.1 44.8 48 -3.2 26.2
09:10 1013 29.91 843 24.89 7.4 45.4 46 -3.5 25.8
09:15 1013 29.91 843 24.89 8 46.4 44 -3.4 25.9
09:20 1014 29.94 843 24.89 8.1 46.7 47 -2.6 27.4
09:25 1014 29.94 843 24.89 7.3 45.2 47 -3.1 26.4
09:30 1014 29.94 843 24.89 7.3 45.2 48 -2.9 26.7
09:35 1014 29.94 843 24.89 7.5 45.4 47 -3 26.6
09:40 1014 29.94 843 24.89 7.4 45.3 48 -2.9 26.7
09:45 1014 29.94 843 24.89 7.7 45.9 47 -2.9 26.7
09:50 1014 29.94 843 24.89 7.8 46 48 -2.6 27.4
09:55 1013 29.91 843 24.89 7.6 45.6 47 -2.9 26.8
10:00 1013 29.91 843 24.89 7.9 46.2 43 -3.8 25.2
10:05 1013 29.91 843 24.89 8.2 46.7 46 -2.8 26.9
10:10 1013 29.91 843 24.89 8.7 47.7 38 -4.8 23.3
10:15 1013 29.91 842 24.86 9.4 49 36 -4.8 23.3
10:20 1013 29.91 842 24.86 10 49.9 35 -4.6 23.7
10:25 1013 29.91 842 24.86 10.1 50.1 33 -5.3 22.4
10:30 1013 29.91 842 24.86 10.6 51.1 32 -5.6 21.9
10:35 1013 29.91 842 24.86 10 49.9 35 -4.9 23.2
10:40 1013 29.91 842 24.86 9 48.2 34 -5.9 21.4
10:45 1013 29.91 842 24.86 8.6 47.4 33 -6.9 19.6
10:50 1013 29.91 842 24.86 8.3 46.9 35 -6.4 20.5
10:55 1013 29.91 842 24.86 9.3 48.7 31 -6.9 19.5
11:00 1013 29.91 842 24.86 10.5 51 30 -6.2 20.9
11:05 1013 29.91 842 24.86 11 51.8 31 -5.6 21.9
11:10 1013 29.91 842 24.86 10.1 50.2 30 -6.5 20.3
11:15 1013 29.91 842 24.86 11.2 52.1 29 -6 21.1
11:20 1013 29.91 842 24.86 11 51.8 31 -5.5 22.1
11:25 1013 29.91 842 24.86 10 49.9 30 -6.8 19.7
11:30 1013 29.91 842 24.86 10.7 51.2 31 -5.7 21.8
11:35 1012 29.88 842 24.86 10.3 50.6 35 -4.5 23.8
11:40 1012 29.88 842 24.86 8.4 47 36 -5.7 21.7
11:45 1012 29.88 842 24.86 9 48.1 34 -6.2 20.8
11:50 1013 29.91 842 24.86 9.2 48.6 33 -6.1 21
11:55 1012 29.88 842 24.86 9.5 49 32 -6.6 20.1
12:00 1012 29.88 842 24.86 9.3 48.8 33 -6.2 20.9
12:05 1012 29.88 842 24.86 9 48.3 32 -6.6 20.2
12:10 1012 29.88 842 24.86 9.6 49.3 31 -6.8 19.8
12:15 1012 29.88 841 24.83 10.5 50.9 29 -6.8 19.8
12:20 1012 29.88 841 24.83 10.5 51 30 -6.3 20.7
12:25 1012 29.88 841 24.83 9.7 49.4 31 -6.5 20.2
12:30 1012 29.88 841 24.83 9.2 48.6 31 -7.1 19.3
12:35 1012 29.88 841 24.83 9.4 48.9 31 -6.9 19.6
12:40 1012 29.88 841 24.83 9.3 48.7 30 -7.4 18.7
12:45 1012 29.88 841 24.83 9.2 48.6 31 -7 19.4
12:50 1012 29.88 841 24.83 9.9 49.8 29 -7.4 18.7
12:55 1012 29.88 841 24.83 10 50 29 -7.1 19.3
13:00 1012 29.88 841 24.83 9 48.3 31 -7.3 18.9
13:05 1012 29.88 841 24.83 9.2 48.5 30 -7.5 18.6
13:10 1012 29.88 841 24.83 9 48.1 37 -5.1 22.9
13:15 1012 29.88 841 24.83 8.7 47.7 42 -3.6 25.6
13:20 1012 29.88 841 24.83 8.1 46.5 45 -3 26.6
13:25 1012 29.88 841 24.83 7.5 45.5 48 -2.8 27
13:30 1012 29.88 841 24.83 7.4 45.3 49 -2.7 27.2
13:35 1012 29.88 841 24.83 7.3 45.1 49 -2.7 27.2
13:40 1012 29.88 841 24.83 7.2 44.9 50 -2.5 27.5
13:45 1012 29.88 841 24.83 7.1 44.8 56 -1.1 29.9
13:50 1012 29.88 841 24.83 7 44.5 56 -1.1 30
13:55 1012 29.88 841 24.83 6.9 44.4 56 -1.1 30
14:00 1012 29.88 842 24.86 6.8 44.2 58 -0.9 30.4
14:05 1012 29.88 842 24.86 6.4 43.6 58 -1.3 29.7
14:10 1012 29.88 842 24.86 6.6 44 58 -1.1 30.1
14:15 1012 29.88 842 24.86 6.6 44 59 -0.7 30.7
14:20 1013 29.91 842 24.86 6.2 43.2 63 -0.3 31.4
14:25 1013 29.91 842 24.86 5.7 42.2 66 -0.1 31.8
14:30 1013 29.91 842 24.86 5.1 41.2 77 1.4 34.4
14:35 1013 29.91 842 24.86 4.4 39.8 78 0.9 33.7
14:40 1013 29.91 842 24.86 4 39.2 81 0.9 33.7
14:45 1013 29.91 842 24.86 3.6 38.5 81 0.7 33.2
14:50 1013 29.91 842 24.86 3.1 37.6 81 0.2 32.4
14:55 1013 29.91 842 24.86 3.1 37.6 80 0 32
15:00 1013 29.91 842 24.86 3.3 38 79 -0 31.9
15:05 1013 29.91 842 24.86 3.5 38.2 75 -0.6 30.9
15:10 1013 29.91 842 24.86 3.7 38.7 73 -0.7 30.7
15:15 1013 29.91 842 24.86 4 39.2 72 -0.5 31.1
15:20 1013 29.91 842 24.86 3.8 38.8 75 -0.2 31.6
15:25 1013 29.91 843 24.89 3.7 38.6 73 -0.7 30.8
15:30 1013 29.91 843 24.89 3.4 38.1 75 -0.7 30.8
15:35 1013 29.91 843 24.89 3.2 37.7 77 -0.5 31
15:40 1013 29.91 843 24.89 2.9 37.3 79 -0.3 31.4
15:45 1013 29.91 843 24.89 3 37.4 79 -0.2 31.6
15:50 1013 29.91 843 24.89 3.2 37.7 78 -0.2 31.6
15:55 1013 29.91 843 24.89 3.3 37.9 76 -0.6 31
16:00 1013 29.91 843 24.89 3 37.3 77 -0.8 30.6
16:05 1013 29.91 843 24.89 2.8 37 78 -0.6 30.9
16:10 1014 29.94 843 24.89 2.6 36.7 78 -0.8 30.5
16:15 1014 29.94 843 24.89 2.5 36.5 76 -1.3 29.7
16:20 1014 29.94 843 24.89 2.5 36.6 75 -1.5 29.3
16:25 1014 29.94 843 24.89 2.6 36.7 75 -1.5 29.4
16:30 1014 29.94 843 24.89 2.4 36.3 73 -1.9 28.6
16:35 1014 29.94 843 24.89 2.2 36 72 -2.4 27.7
16:40 1014 29.94 843 24.89 2 35.6 73 -2.4 27.7
16:45 1014 29.94 843 24.89 1.7 35.1 73 -2.6 27.4
16:50 1014 29.94 843 24.89 1.5 34.7 74 -2.7 27.2
16:55 1014 29.94 843 24.89 1.3 34.4 75 -2.7 27.2
17:00 1014 29.94 843 24.89 1.2 34.1 76 -2.7 27.2
17:05 1014 29.94 843 24.89 0.9 33.7 75 -3.1 26.5
17:10 1014 29.94 843 24.89 0.8 33.5 75 -3.1 26.4
17:15 1014 29.94 843 24.89 0.8 33.4 74 -3.3 26.1
17:20 1014 29.94 844 24.92 0.7 33.3 74 -3.3 26
17:25 1014 29.94 844 24.92 0.6 33.2 74 -3.4 25.9
17:30 1014 29.94 844 24.92 0.5 32.9 74 -3.6 25.5
17:35 1014 29.94 844 24.92 0.4 32.7 73 -3.8 25.2
17:40 1015 29.97 844 24.92 0.3 32.6 74 -3.8 25.2
17:45 1015 29.97 844 24.92 0.1 32.3 75 -3.8 25.2
17:50 1015 29.97 844 24.92 0 32.1 74 -4 24.8
17:55 1015 29.97 844 24.92 -0.2 31.7 75 -4 24.8
18:00 1015 29.97 844 24.92 -0.4 31.4 75 -4.2 24.4
18:05 1015 29.97 844 24.92 -0.5 31.1 75 -4.3 24.2
18:10 1015 29.97 844 24.92 -0.5 31.1 75 -4.4 24.1
18:15 1015 29.97 844 24.92 -0.5 31 75 -4.4 24
18:20 1015 29.97 844 24.92 -0.5 31 74 -4.6 23.7
18:25 1015 29.97 844 24.92 -0.5 31 74 -4.6 23.7
18:30 1015 29.97 845 24.95 -0.6 30.8 75 -4.6 23.8
18:35 1015 29.97 845 24.95 -0.8 30.6 76 -4.5 23.8
18:40 1016 30 845 24.95 -0.8 30.6 75 -4.6 23.7
18:45 1016 30 845 24.95 -0.9 30.4 76 -4.5 23.8
18:50 1016 30 845 24.95 -1 30.1 77 -4.6 23.7
18:55 1016 30 845 24.95 -1.2 29.8 78 -4.7 23.6
19:00 1016 30 845 24.95 -1.4 29.4 79 -4.6 23.7
19:05 1016 30 845 24.95 -1.7 29 80 -4.7 23.5
19:10 1016 30 845 24.95 -1.9 28.6 81 -4.8 23.4
19:15 1016 30 845 24.95 -2 28.5 81 -4.9 23.2
19:20 1016 30 845 24.95 -2 28.4 81 -4.8 23.4
19:25 1016 30 845 24.95 -2.1 28.3 81 -4.9 23.3
19:30 1016 30 845 24.95 -2.1 28.2 82 -4.9 23.3
19:35 1016 30 845 24.95 -2.3 27.9 81 -5 22.9
19:40 1016 30 845 24.95 -2.2 28 81 -5.1 22.8
19:45 1016 30 846 24.98 -2.2 28 81 -5.1 22.8
19:50 1017 30.03 846 24.98 -2.4 27.7 81 -5.2 22.7
19:55 1017 30.03 846 24.98 -2.4 27.7 80 -5.3 22.4
20:00 1017 30.03 846 24.98 -2.4 27.7 81 -5.3 22.5
20:05 1017 30.03 846 24.98 -2.4 27.7 80 -5.3 22.4
20:10 1017 30.03 846 24.98 -2.4 27.7 80 -5.4 22.3
20:15 1017 30.03 846 24.98 -2.5 27.5 81 -5.4 22.3
20:20 1017 30.03 846 24.98 -2.7 27.2 81 -5.5 22.1
20:25 1017 30.03 846 24.98 -2.8 27 81 -5.5 22
20:30 1017 30.03 846 24.98 -2.8 27 81 -5.6 21.8
20:35 1017 30.03 846 24.98 -2.7 27.1 81 -5.6 21.9
20:40 1017 30.03 846 24.98 -2.8 27 81 -5.6 22
20:45 1017 30.03 846 24.98 -2.8 26.9 81 -5.7 21.8
20:50 1017 30.03 846 24.98 -3 26.7 81 -5.8 21.5
20:55 1017 30.03 847 25.01 -3 26.6 81 -5.9 21.4
21:00 1017 30.03 847 25.01 -3 26.5 80 -6 21.3
21:05 1017 30.03 847 25.01 -3 26.6 79 -6.1 21
21:10 1017 30.03 847 25.01 -3.1 26.5 80 -6.1 21.1
21:15 1017 30.03 847 25.01 -3.1 26.5 79 -6.2 20.8
21:20 1017 30.03 847 25.01 -3.2 26.3 80 -6.1 21
21:25 1018 30.06 847 25.01 -3.2 26.2 81 -6.1 21.1
21:30 1018 30.06 847 25.01 -3.4 25.9 82 -6.1 21
21:35 1018 30.06 847 25.01 -3.4 25.8 82 -6.1 21
21:40 1018 30.06 847 25.01 -3.5 25.7 82 -6.2 20.9
21:45 1018 30.06 847 25.01 -3.6 25.6 82 -6.3 20.7
21:50 1018 30.06 847 25.01 -3.7 25.4 82 -6.3 20.7
21:55 1018 30.06 847 25.01 -3.7 25.4 82 -6.2 20.8
22:00 1018 30.06 847 25.01 -3.6 25.4 81 -6.4 20.5
22:05 1018 30.06 847 25.01 -3.6 25.6 80 -6.5 20.4
22:10 1018 30.06 847 25.01 -3.5 25.6 80 -6.5 20.3
22:15 1018 30.06 847 25.01 -3.6 25.6 81 -6.5 20.4
22:20 1018 30.06 847 25.01 -3.6 25.5 81 -6.5 20.4
22:25 1018 30.06 847 25.01 -3.5 25.6 81 -6.4 20.5
22:30 1018 30.06 847 25.01 -3.6 25.5 80 -6.6 20.1
22:35 1018 30.06 847 25.01 -3.6 25.5 80 -6.6 20.1
22:40 1018 30.06 848 25.04 -3.7 25.4 80 -6.6 20.2
22:45 1018 30.06 848 25.04 -3.6 25.5 80 -6.6 20.2
22:50 1018 30.06 848 25.04 -3.7 25.4 81 -6.5 20.2
22:55 1019 30.09 848 25.04 -3.7 25.4 80 -6.6 20.2
23:00 1019 30.09 848 25.04 -3.7 25.4 81 -6.5 20.3
23:05 1019 30.09 848 25.04 -3.7 25.3 81 -6.5 20.2
23:10 1019 30.09 848 25.04 -3.8 25.2 81 -6.6 20.1
23:15 1019 30.09 848 25.04 -3.9 25 82 -6.6 20.2
23:20 1019 30.09 848 25.04 -3.9 25 83 -6.4 20.4
23:25 1019 30.09 848 25.04 -3.9 24.9 82 -6.6 20.1
23:30 1019 30.09 848 25.04 -3.9 25 80 -6.9 19.5
23:35 1019 30.09 848 25.04 -3.8 25.2 78 -7.1 19.2
23:40 1019 30.09 848 25.04 -3.7 25.3 79 -6.8 19.7
23:45 1019 30.09 848 25.04 -3.8 25.2 77 -7.2 19.1
23:50 1019 30.09 848 25.04 -3.7 25.4 76 -7.2 19
23:55 1019 30.09 848 25.04 -3.6 25.5 76 -7.3 18.9
24:00 1019 30.09 848 25.04 -3.6 25.5 73 -7.7 18.2